createdAt,value
2017-03-05T00:00:40.838Z,86.34
2017-03-05T00:02:56.896Z,85.77
2017-03-05T00:03:39.595Z,86.43
2017-03-05T00:04:22.039Z,86.15
2017-03-05T00:05:04.956Z,86.15
2017-03-05T00:05:47.549Z,86.53
2017-03-05T00:06:30.219Z,86.34
2017-03-05T00:07:12.692Z,86.63
2017-03-05T00:07:55.196Z,86.72
2017-03-05T00:08:37.447Z,86.63
2017-03-05T00:09:19.951Z,86.53
2017-03-05T00:10:01.779Z,86.34
2017-03-05T00:10:44.447Z,86.63
2017-03-05T00:12:39.841Z,86.24
2017-03-05T00:13:22.610Z,86.53
2017-03-05T00:14:04.930Z,86.63
2017-03-05T00:14:47.309Z,86.91
2017-03-05T00:15:30.227Z,87.38
2017-03-05T00:16:12.936Z,87.48
2017-03-05T00:16:55.356Z,87.38
2017-03-05T00:17:37.635Z,87.57
2017-03-05T00:18:19.937Z,87.57
2017-03-05T00:20:20.887Z,87.01
2017-03-05T00:22:42.416Z,86.15
2017-03-05T00:23:25.276Z,86.15
2017-03-05T00:24:07.789Z,86.43
2017-03-05T00:26:08.577Z,86.43
2017-03-05T00:26:51.107Z,86.34
2017-03-05T00:27:33.908Z,86.34
2017-03-05T00:28:16.302Z,86.34
2017-03-05T00:28:58.944Z,86.34
2017-03-05T00:29:41.406Z,86.53
2017-03-05T00:30:23.964Z,86.53
2017-03-05T00:31:06.719Z,87.01
2017-03-05T00:33:22.904Z,86.72
2017-03-05T00:34:05.693Z,86.63
2017-03-05T00:34:48.523Z,86.34
2017-03-05T00:35:31.268Z,86.05
2017-03-05T00:36:13.481Z,85.77
2017-03-05T00:38:29.656Z,86.24
2017-03-05T00:39:12.445Z,86.24
2017-03-05T00:39:54.919Z,86.63
2017-03-05T00:40:37.049Z,86.53
2017-03-05T00:41:19.476Z,86.53
2017-03-05T00:42:02.141Z,86.63
2017-03-05T00:42:44.981Z,86.82
2017-03-05T00:43:27.325Z,86.72
2017-03-05T00:44:09.781Z,86.72
2017-03-05T00:44:52.027Z,86.63
2017-03-05T00:45:34.706Z,86.72
2017-03-05T00:46:17.423Z,87.01
2017-03-05T00:46:59.931Z,86.63
2017-03-05T00:47:42.387Z,86.82
2017-03-05T00:48:25.024Z,87.38
2017-03-05T00:49:07.650Z,87.67
2017-03-05T00:49:50.347Z,87.48
2017-03-05T00:50:33.103Z,87.48
2017-03-05T00:51:15.510Z,87.48
2017-03-05T00:51:58.013Z,87.48
2017-03-05T00:52:40.734Z,87.38
2017-03-05T00:53:23.056Z,87.76
2017-03-05T00:54:05.580Z,87.67
2017-03-05T00:54:49.960Z,87.67
2017-03-05T00:55:32.427Z,87.38
2017-03-05T00:56:14.607Z,87.48
2017-03-05T00:56:57.085Z,87.67
2017-03-05T00:57:39.781Z,87.38
2017-03-05T00:58:22.782Z,87.86
2017-03-05T00:59:05.658Z,87.67
2017-03-05T00:59:48.178Z,87.86
2017-03-05T01:00:30.727Z,88.05
2017-03-05T01:01:13.477Z,87.67
2017-03-05T01:01:55.749Z,87.76
2017-03-05T01:02:38.567Z,87.29
2017-03-05T01:03:20.806Z,87.48
2017-03-05T01:04:03.345Z,87.1
2017-03-05T01:04:45.634Z,87.48
2017-03-05T01:05:28.721Z,87.1
2017-03-05T01:06:11.069Z,87.29
2017-03-05T01:08:01.047Z,88.24
2017-03-05T01:10:22.695Z,87.57
2017-03-05T01:11:04.962Z,87.67
2017-03-05T01:11:47.149Z,87.95
2017-03-05T01:14:03.395Z,87.57
2017-03-05T01:14:45.552Z,87.67
2017-03-05T01:16:40.784Z,87.48
2017-03-05T01:17:22.933Z,87.76
2017-03-05T01:18:05.782Z,87.86
2017-03-05T01:20:21.182Z,87.38
2017-03-05T01:22:10.847Z,87.29
2017-03-05T01:22:53.174Z,87.57
2017-03-05T01:23:35.844Z,87.1
2017-03-05T01:24:18.311Z,87.19
2017-03-05T01:25:01.376Z,87.19
2017-03-05T01:25:43.917Z,87.57
2017-03-05T01:26:26.283Z,87.19
2017-03-05T01:27:08.966Z,87.67
2017-03-05T01:27:50.527Z,87.29
2017-03-05T01:28:31.104Z,87.19
2017-03-05T01:29:11.629Z,87.76
2017-03-05T01:29:52.177Z,87.67
2017-03-05T01:30:32.709Z,87.86
2017-03-05T01:31:13.250Z,87.86
2017-03-05T01:31:55.061Z,87.48
2017-03-05T01:32:37.674Z,87.48
2017-03-05T01:33:20.364Z,87.57
2017-03-05T01:35:15.543Z,87.86
2017-03-05T01:35:58.363Z,87.67
2017-03-05T01:36:41.425Z,87.76
2017-03-05T01:37:23.718Z,87.67
2017-03-05T01:38:06.086Z,87.95
2017-03-05T01:40:01.668Z,87.48
2017-03-05T01:40:44.219Z,87.29
2017-03-05T01:41:26.910Z,87.57
2017-03-05T01:42:09.520Z,87.67
2017-03-05T01:42:51.953Z,87.76
2017-03-05T01:43:34.507Z,87.67
2017-03-05T01:44:17.042Z,87.86
2017-03-05T01:44:59.842Z,88.15
2017-03-05T01:45:42.058Z,88.05
2017-03-05T01:47:37.418Z,88.34
2017-03-05T01:48:19.998Z,88.9
2017-03-05T01:49:02.483Z,89
2017-03-05T01:49:44.950Z,88.71
2017-03-05T01:50:27.567Z,89.47
2017-03-05T01:52:17.209Z,88.81
2017-03-05T01:52:59.989Z,89.19
2017-03-05T01:53:42.544Z,89.57
2017-03-05T01:54:24.716Z,89.47
2017-03-05T01:55:07.464Z,89.57
2017-03-05T01:55:50.045Z,89.57
2017-03-05T01:56:32.628Z,89.38
2017-03-05T01:57:15.465Z,89.57
2017-03-05T01:57:58.491Z,89.57
2017-03-05T01:58:41.240Z,89.47
2017-03-05T01:59:23.667Z,89.57
2017-03-05T02:01:39.892Z,89.57
2017-03-05T02:02:22.347Z,89.57
2017-03-05T02:03:04.326Z,89.76
2017-03-05T02:03:46.984Z,89.67
2017-03-05T02:06:08.250Z,89.57
2017-03-05T02:06:48.796Z,89.67
2017-03-05T02:07:29.336Z,90.23
2017-03-05T02:08:09.879Z,89.95
2017-03-05T02:08:50.420Z,89.95
2017-03-05T02:09:30.957Z,90.23
2017-03-05T02:10:11.486Z,90.33
2017-03-05T02:10:52.035Z,90.33
2017-03-05T02:11:32.564Z,90.14
2017-03-05T02:12:13.112Z,90.14
2017-03-05T02:12:53.653Z,90.14
2017-03-05T02:13:34.193Z,89.95
2017-03-05T02:14:14.735Z,90.23
2017-03-05T02:14:55.282Z,90.33
2017-03-05T02:15:35.826Z,90.14
2017-03-05T02:16:16.363Z,90.23
2017-03-05T02:16:56.892Z,90.42
2017-03-05T02:17:37.439Z,90.61
2017-03-05T02:18:17.968Z,90.42
2017-03-05T02:18:58.516Z,90.33
2017-03-05T02:19:39.061Z,90.42
2017-03-05T02:20:19.600Z,90.42
2017-03-05T02:21:00.141Z,90.23
2017-03-05T02:21:40.673Z,90.14
2017-03-05T02:22:21.219Z,90.61
2017-03-05T02:23:01.749Z,90.8
2017-03-05T02:23:42.296Z,90.99
2017-03-05T02:24:22.822Z,91.09
2017-03-05T02:25:03.367Z,91.19
2017-03-05T02:25:43.912Z,91.28
2017-03-05T02:26:24.452Z,91.09
2017-03-05T02:27:04.995Z,91.28
2017-03-05T02:27:45.530Z,91.19
2017-03-05T02:28:26.073Z,91.09
2017-03-05T02:29:06.610Z,91.28
2017-03-05T02:29:47.153Z,91.09
2017-03-05T02:30:27.730Z,91.19
2017-03-05T02:31:08.276Z,91.28
2017-03-05T02:31:48.817Z,91.09
2017-03-05T02:32:29.353Z,90.8
2017-03-05T02:33:09.903Z,90.33
2017-03-05T02:33:50.436Z,90.33
2017-03-05T02:34:30.982Z,90.23
2017-03-05T02:35:11.524Z,90.14
2017-03-05T02:35:52.072Z,90.14
2017-03-05T02:36:32.617Z,90.71
2017-03-05T02:37:13.159Z,90.71
2017-03-05T02:37:53.701Z,90.9
2017-03-05T02:38:34.236Z,91.09
2017-03-05T02:39:14.761Z,90.61
2017-03-05T02:39:55.312Z,90.61
2017-03-05T02:40:35.847Z,90.9
2017-03-05T02:41:16.392Z,90.9
2017-03-05T02:41:56.942Z,90.71
2017-03-05T02:42:37.486Z,90.61
2017-03-05T02:43:18.026Z,90.99
2017-03-05T02:43:58.563Z,90.61
2017-03-05T02:44:39.102Z,90.71
2017-03-05T02:45:19.642Z,90.9
2017-03-05T02:46:00.174Z,90.9
2017-03-05T02:46:40.717Z,90.9
2017-03-05T02:47:21.251Z,90.99
2017-03-05T02:48:01.795Z,91.19
2017-03-05T02:48:42.335Z,91.19
2017-03-05T02:49:22.875Z,91.09
2017-03-05T02:50:03.420Z,91.28
2017-03-05T02:50:43.957Z,91.19
2017-03-05T02:51:24.498Z,91.28
2017-03-05T02:52:05.026Z,91.28
2017-03-05T02:52:45.574Z,91.38
2017-03-05T02:53:26.109Z,91.38
2017-03-05T02:54:06.651Z,91.28
2017-03-05T02:54:47.192Z,90.99
2017-03-05T02:55:27.733Z,91.19
2017-03-05T02:56:08.278Z,90.94
2017-03-05T02:56:48.810Z,90.85
2017-03-05T02:57:29.355Z,91.04
2017-03-05T02:58:09.901Z,90.99
2017-03-05T02:58:50.430Z,91.23
2017-03-05T02:59:30.980Z,91.23
2017-03-05T03:00:11.532Z,90.85
2017-03-05T03:00:52.081Z,91.13
2017-03-05T03:01:32.616Z,90.85
2017-03-05T03:02:13.159Z,90.85
2017-03-05T03:02:53.709Z,91.33
2017-03-05T03:03:34.260Z,91.33
2017-03-05T03:04:14.805Z,91.52
2017-03-05T03:04:55.338Z,91.13
2017-03-05T03:05:35.883Z,91.23
2017-03-05T03:06:16.415Z,91.13
2017-03-05T03:06:56.964Z,91.04
2017-03-05T03:07:37.496Z,91.13
2017-03-05T03:08:18.043Z,91.13
2017-03-05T03:08:58.570Z,91.23
2017-03-05T03:09:39.116Z,91.13
2017-03-05T03:10:19.659Z,91.13
2017-03-05T03:11:00.212Z,91.13
2017-03-05T03:11:40.759Z,91.23
2017-03-05T03:12:21.296Z,91.13
2017-03-05T03:13:01.840Z,91.23
2017-03-05T03:13:42.380Z,91.23
2017-03-05T03:14:22.916Z,91.13
2017-03-05T03:15:03.455Z,91.13
2017-03-05T03:15:43.997Z,91.33
2017-03-05T03:16:24.537Z,91.13
2017-03-05T03:17:05.075Z,91.13
2017-03-05T03:17:45.628Z,91.13
2017-03-05T03:18:26.176Z,91.13
2017-03-05T03:19:06.725Z,91.13
2017-03-05T03:19:47.273Z,91.13
2017-03-05T03:20:27.828Z,90.85
2017-03-05T03:21:08.377Z,91.33
2017-03-05T03:21:48.921Z,91.13
2017-03-05T03:22:29.456Z,90.94
2017-03-05T03:23:10.000Z,91.13
2017-03-05T03:23:50.543Z,91.13
2017-03-05T03:24:31.077Z,91.13
2017-03-05T03:25:11.614Z,91.23
2017-03-05T03:25:52.147Z,91.33
2017-03-05T03:26:32.685Z,91.04
2017-03-05T03:27:13.220Z,91.52
2017-03-05T03:27:53.755Z,91.71
2017-03-05T03:28:34.281Z,91.61
2017-03-05T03:29:14.810Z,91.61
2017-03-05T03:29:55.344Z,91.61
2017-03-05T03:30:35.876Z,91.33
2017-03-05T03:31:16.401Z,91.23
2017-03-05T03:31:56.929Z,91.99
2017-03-05T03:32:37.461Z,91.99
2017-03-05T03:33:17.993Z,91.89
2017-03-05T03:33:58.526Z,91.89
2017-03-05T03:34:39.081Z,91.8
2017-03-05T03:35:19.588Z,91.89
2017-03-05T03:36:00.116Z,91.8
2017-03-05T03:36:40.648Z,91.71
2017-03-05T03:37:21.181Z,91.89
2017-03-05T03:38:01.713Z,91.71
2017-03-05T03:38:42.246Z,91.71
2017-03-05T03:39:22.769Z,91.61
2017-03-05T03:40:03.303Z,91.71
2017-03-05T03:40:43.837Z,91.71
2017-03-05T03:41:24.365Z,91.89
2017-03-05T03:42:04.899Z,91.71
2017-03-05T03:42:45.484Z,91.89
2017-03-05T03:43:26.017Z,91.71
2017-03-05T03:44:06.558Z,91.52
2017-03-05T03:44:47.091Z,91.89
2017-03-05T03:45:27.627Z,91.61
2017-03-05T03:46:08.162Z,91.61
2017-03-05T03:46:48.698Z,91.52
2017-03-05T03:47:29.234Z,91.52
2017-03-05T03:48:09.765Z,91.71
2017-03-05T03:48:50.295Z,91.71
2017-03-05T03:49:30.834Z,91.33
2017-03-05T03:50:11.358Z,91.8
2017-03-05T03:50:51.888Z,91.8
2017-03-05T03:51:32.422Z,91.52
2017-03-05T03:52:12.957Z,91.42
2017-03-05T03:52:53.488Z,91.52
2017-03-05T03:53:34.026Z,91.42
2017-03-05T03:54:14.557Z,91.52
2017-03-05T03:54:55.091Z,91.52
2017-03-05T03:55:35.623Z,91.52
2017-03-05T03:56:16.212Z,91.52
2017-03-05T03:56:56.716Z,91.33
2017-03-05T03:57:37.248Z,91.52
2017-03-05T03:58:17.767Z,91.52
2017-03-05T03:58:58.305Z,91.71
2017-03-05T03:59:38.840Z,91.52
2017-03-05T04:00:19.374Z,91.52
2017-03-05T04:00:59.903Z,91.52
2017-03-05T04:01:40.433Z,91.52
2017-03-05T04:02:20.968Z,91.52
2017-03-05T04:03:01.501Z,91.61
2017-03-05T04:03:42.030Z,91.52
2017-03-05T04:04:22.572Z,91.42
2017-03-05T04:05:03.104Z,91.61
2017-03-05T04:05:43.645Z,91.8
2017-03-05T04:06:24.179Z,91.8
2017-03-05T04:07:04.704Z,91.61
2017-03-05T04:07:45.234Z,91.52
2017-03-05T04:08:25.770Z,91.99
2017-03-05T04:09:06.303Z,91.89
2017-03-05T04:09:46.834Z,91.71
2017-03-05T04:10:27.363Z,91.61
2017-03-05T04:11:07.900Z,91.89
2017-03-05T04:11:48.432Z,91.89
2017-03-05T04:12:28.959Z,91.71
2017-03-05T04:13:09.489Z,91.99
2017-03-05T04:13:50.013Z,91.71
2017-03-05T04:14:30.554Z,91.8
2017-03-05T04:15:11.081Z,91.89
2017-03-05T04:15:51.618Z,91.99
2017-03-05T04:16:32.143Z,91.89
2017-03-05T04:17:12.672Z,91.52
2017-03-05T04:17:53.202Z,91.99
2017-03-05T04:18:33.721Z,91.33
2017-03-05T04:19:14.256Z,91.33
2017-03-05T04:19:54.785Z,91.23
2017-03-05T04:20:35.319Z,91.33
2017-03-05T04:21:15.853Z,91.23
2017-03-05T04:21:56.386Z,91.13
2017-03-05T04:22:36.914Z,91.33
2017-03-05T04:23:17.446Z,91.33
2017-03-05T04:23:57.972Z,91.61
2017-03-05T04:24:38.505Z,91.52
2017-03-05T04:25:19.045Z,91.61
2017-03-05T04:25:59.577Z,91.66
2017-03-05T04:26:40.108Z,91.04
2017-03-05T04:27:20.638Z,90.8
2017-03-05T04:28:01.174Z,91.28
2017-03-05T04:28:41.709Z,90.9
2017-03-05T04:29:22.243Z,90.9
2017-03-05T04:30:02.779Z,91.09
2017-03-05T04:30:43.312Z,91.09
2017-03-05T04:31:23.847Z,91.09
2017-03-05T04:32:04.377Z,91.19
2017-03-05T04:32:44.958Z,91.09
2017-03-05T04:33:25.501Z,91.09
2017-03-05T04:34:06.018Z,90.99
2017-03-05T04:34:46.550Z,91.28
2017-03-05T04:35:27.085Z,91.28
2017-03-05T04:36:07.615Z,91.09
2017-03-05T04:36:48.141Z,91.28
2017-03-05T04:37:28.674Z,90.9
2017-03-05T04:38:09.204Z,90.8
2017-03-05T04:38:49.731Z,91.09
2017-03-05T04:39:30.259Z,90.8
2017-03-05T04:40:10.794Z,90.9
2017-03-05T04:40:51.325Z,91.19
2017-03-05T04:41:31.861Z,90.99
2017-03-05T04:42:12.506Z,90.99
2017-03-05T04:42:53.029Z,91.47
2017-03-05T04:43:33.561Z,91.19
2017-03-05T04:44:14.097Z,91.19
2017-03-05T04:44:54.633Z,91.28
2017-03-05T04:45:35.160Z,91.38
2017-03-05T04:46:15.685Z,91.28
2017-03-05T04:46:56.213Z,91.28
2017-03-05T04:47:36.747Z,91.28
2017-03-05T04:48:17.281Z,91.19
2017-03-05T04:48:57.810Z,91.28
2017-03-05T04:49:38.334Z,91.28
2017-03-05T04:50:18.867Z,91.28
2017-03-05T04:50:59.399Z,91.19
2017-03-05T04:51:39.927Z,91.09
2017-03-05T04:52:20.460Z,91.28
2017-03-05T04:53:00.995Z,91.19
2017-03-05T04:53:41.519Z,91.19
2017-03-05T04:54:22.049Z,91.09
2017-03-05T04:55:02.705Z,91.19
2017-03-05T04:55:43.395Z,91.19
2017-03-05T04:56:23.958Z,91.28
2017-03-05T04:57:04.495Z,91.19
2017-03-05T04:57:45.025Z,91.19
2017-03-05T04:58:25.588Z,91.28
2017-03-05T04:59:06.128Z,91.28
2017-03-05T04:59:46.655Z,91.38
2017-03-05T05:00:27.193Z,91.28
2017-03-05T05:01:07.725Z,91.19
2017-03-05T05:01:48.256Z,90.99
2017-03-05T05:02:28.787Z,91.09
2017-03-05T05:03:09.329Z,91.19
2017-03-05T05:03:49.856Z,91.38
2017-03-05T05:04:30.395Z,91.09
2017-03-05T05:05:10.921Z,91.28
2017-03-05T05:05:51.478Z,91.28
2017-03-05T05:06:32.012Z,91.47
2017-03-05T05:07:12.545Z,91.19
2017-03-05T05:07:53.083Z,91.09
2017-03-05T05:08:33.621Z,91.19
2017-03-05T05:09:14.154Z,91.28
2017-03-05T05:09:54.690Z,91.28
2017-03-05T05:10:35.222Z,91.28
2017-03-05T05:11:15.755Z,91.28
2017-03-05T05:11:56.327Z,91.19
2017-03-05T05:12:36.953Z,91.28
2017-03-05T05:13:17.493Z,91.28
2017-03-05T05:13:58.020Z,91.19
2017-03-05T05:14:38.553Z,91.19
2017-03-05T05:15:19.083Z,91.19
2017-03-05T05:15:59.615Z,91.19
2017-03-05T05:16:40.145Z,91.19
2017-03-05T05:17:20.680Z,91.19
2017-03-05T05:18:01.213Z,91.19
2017-03-05T05:18:41.785Z,91.28
2017-03-05T05:19:22.327Z,91.19
2017-03-05T05:20:02.861Z,91.19
2017-03-05T05:20:43.393Z,91.19
2017-03-05T05:21:23.925Z,91.28
2017-03-05T05:22:04.463Z,91.24
2017-03-05T05:22:44.986Z,91.24
2017-03-05T05:23:25.525Z,91.19
2017-03-05T05:24:06.066Z,91.24
2017-03-05T05:24:46.599Z,91.24
2017-03-05T05:25:27.134Z,91.28
2017-03-05T05:26:07.669Z,90.52
2017-03-05T05:26:48.200Z,91.14
2017-03-05T05:27:28.738Z,90.47
2017-03-05T05:28:09.270Z,91.28
2017-03-05T05:28:49.807Z,91.04
2017-03-05T05:29:30.345Z,91.04
2017-03-05T05:30:10.882Z,91.14
2017-03-05T05:30:51.420Z,91.24
2017-03-05T05:31:31.954Z,91.24
2017-03-05T05:32:12.515Z,91.14
2017-03-05T05:32:53.056Z,91.14
2017-03-05T05:33:33.668Z,91.14
2017-03-05T05:34:14.239Z,91.24
2017-03-05T05:34:54.775Z,91.14
2017-03-05T05:35:35.315Z,91.33
2017-03-05T05:36:15.851Z,91.14
2017-03-05T05:36:56.484Z,91.14
2017-03-05T05:37:37.031Z,90.95
2017-03-05T05:38:17.572Z,91.14
2017-03-05T05:38:58.106Z,91.14
2017-03-05T05:39:38.630Z,90.85
2017-03-05T05:40:19.224Z,91.24
2017-03-05T05:40:59.761Z,90.85
2017-03-05T05:41:40.289Z,91.04
2017-03-05T05:42:20.826Z,91.42
2017-03-05T05:43:01.359Z,91.24
2017-03-05T05:43:41.892Z,91.14
2017-03-05T05:44:22.432Z,91.14
2017-03-05T05:45:03.011Z,91.04
2017-03-05T05:45:43.550Z,91.04
2017-03-05T05:46:24.190Z,91.19
2017-03-05T05:47:04.790Z,91.24
2017-03-05T05:47:45.327Z,90.95
2017-03-05T05:48:25.857Z,91.14
2017-03-05T05:49:06.390Z,91.14
2017-03-05T05:49:46.920Z,91.24
2017-03-05T05:50:27.467Z,91.33
2017-03-05T05:51:08.001Z,90.95
2017-03-05T05:51:48.538Z,91.33
2017-03-05T05:52:29.075Z,91.38
2017-03-05T05:53:09.605Z,91.33
2017-03-05T05:53:50.146Z,90.95
2017-03-05T05:54:30.687Z,91.04
2017-03-05T05:55:11.213Z,91.04
2017-03-05T05:55:51.749Z,91.04
2017-03-05T05:56:32.283Z,91.33
2017-03-05T05:57:12.811Z,91.04
2017-03-05T05:57:53.351Z,91.14
2017-03-05T05:58:33.934Z,91.14
2017-03-05T05:59:14.466Z,91.04
2017-03-05T05:59:55.012Z,91.04
2017-03-05T06:00:35.541Z,91.14
2017-03-05T06:01:16.067Z,91.04
2017-03-05T06:01:56.604Z,91.24
2017-03-05T06:02:37.138Z,91.24
2017-03-05T06:03:17.675Z,91.14
2017-03-05T06:03:58.209Z,91.24
2017-03-05T06:04:38.745Z,91.24
2017-03-05T06:05:19.271Z,91.42
2017-03-05T06:05:59.809Z,91.14
2017-03-05T06:06:40.340Z,91.14
2017-03-05T06:07:20.876Z,91.04
2017-03-05T06:08:01.408Z,91.04
2017-03-05T06:08:41.935Z,91.33
2017-03-05T06:09:22.461Z,91.24
2017-03-05T06:10:02.992Z,91.24
2017-03-05T06:10:43.518Z,91.33
2017-03-05T06:11:24.044Z,91.24
2017-03-05T06:12:04.572Z,91.24
2017-03-05T06:12:45.113Z,91.42
2017-03-05T06:13:25.652Z,91.24
2017-03-05T06:14:06.189Z,91.42
2017-03-05T06:14:46.933Z,91.24
2017-03-05T06:15:27.460Z,91.42
2017-03-05T06:16:07.998Z,91.14
2017-03-05T06:16:48.536Z,90.95
2017-03-05T06:17:29.073Z,91.33
2017-03-05T06:18:09.607Z,91.33
2017-03-05T06:18:50.132Z,91.14
2017-03-05T06:19:30.668Z,91.24
2017-03-05T06:20:11.206Z,91.33
2017-03-05T06:20:51.741Z,91.14
2017-03-05T06:21:32.291Z,91.04
2017-03-05T06:22:12.929Z,91.33
2017-03-05T06:22:53.524Z,91.71
2017-03-05T06:23:34.064Z,91.04
2017-03-05T06:24:14.603Z,91.52
2017-03-05T06:24:55.144Z,91.14
2017-03-05T06:25:35.762Z,91.42
2017-03-05T06:26:16.290Z,91.04
2017-03-05T06:26:56.818Z,91.33
2017-03-05T06:27:37.355Z,91.89
2017-03-05T06:28:17.900Z,91.89
2017-03-05T06:28:58.681Z,91.8
2017-03-05T06:29:39.216Z,91.89
2017-03-05T06:30:19.778Z,91.89
2017-03-05T06:31:00.310Z,91.61
2017-03-05T06:31:40.840Z,91.33
2017-03-05T06:32:21.385Z,91.42
2017-03-05T06:33:01.925Z,91.8
2017-03-05T06:33:42.590Z,91.33
2017-03-05T06:34:23.125Z,92.09
2017-03-05T06:35:03.655Z,91.75
2017-03-05T06:35:44.389Z,91.8
2017-03-05T06:36:24.928Z,91.94
2017-03-05T06:37:05.461Z,91.94
2017-03-05T06:37:45.997Z,91.94
2017-03-05T06:38:26.521Z,92.61
2017-03-05T06:39:07.043Z,92.51
2017-03-05T06:39:47.581Z,92.42
2017-03-05T06:40:28.124Z,92.51
2017-03-05T06:41:08.657Z,92.32
2017-03-05T06:41:49.193Z,92.32
2017-03-05T06:42:29.725Z,92.51
2017-03-05T06:43:10.260Z,92.32
2017-03-05T06:43:50.795Z,92.04
2017-03-05T06:44:31.344Z,92.23
2017-03-05T06:45:11.880Z,92.23
2017-03-05T06:45:52.441Z,92.23
2017-03-05T06:46:33.822Z,91.94
2017-03-05T06:47:15.879Z,92.71
2017-03-05T06:47:57.691Z,91.94
2017-03-05T06:48:38.239Z,92.42
2017-03-05T06:49:18.779Z,92.42
2017-03-05T06:49:59.379Z,92.42
2017-03-05T06:50:39.808Z,92.42
2017-03-05T06:51:25.977Z,92.71
2017-03-05T06:52:18.914Z,92.51
2017-03-05T06:52:59.446Z,92.51
2017-03-05T06:53:40.792Z,92.42
2017-03-05T06:54:23.707Z,92.42
2017-03-05T06:55:06.490Z,92.51
2017-03-05T06:55:49.912Z,92.51
2017-03-05T06:56:31.976Z,92.51
2017-03-05T06:57:14.979Z,92.51
2017-03-05T06:57:57.434Z,92.42
2017-03-05T06:58:40.772Z,92.51
2017-03-05T06:59:21.336Z,92.51
2017-03-05T07:00:01.940Z,92.51
2017-03-05T07:00:42.403Z,92.51
2017-03-05T07:01:22.938Z,92.51
2017-03-05T07:02:03.475Z,92.61
2017-03-05T07:02:44.009Z,92.42
2017-03-05T07:03:24.559Z,92.51
2017-03-05T07:04:05.092Z,92.71
2017-03-05T07:04:45.641Z,92.71
2017-03-05T07:05:26.154Z,92.23
2017-03-05T07:06:06.691Z,91.85
2017-03-05T07:06:47.228Z,91.85
2017-03-05T07:07:27.763Z,92.71
2017-03-05T07:08:08.297Z,92.51
2017-03-05T07:08:48.841Z,92.23
2017-03-05T07:09:29.373Z,92.61
2017-03-05T07:10:10.183Z,92.23
2017-03-05T07:10:53.055Z,92.23
2017-03-05T07:11:34.652Z,92.66
2017-03-05T07:12:18.072Z,92.23
2017-03-05T07:14:39.525Z,92.27
2017-03-05T07:15:20.060Z,92.27
2017-03-05T07:16:00.602Z,92.08
2017-03-05T07:16:41.138Z,92.27
2017-03-05T07:17:21.671Z,92.37
2017-03-05T07:18:02.202Z,92.18
2017-03-05T07:18:42.776Z,92.18
2017-03-05T07:19:23.324Z,91.99
2017-03-05T07:20:03.854Z,92.08
2017-03-05T07:20:44.389Z,92.08
2017-03-05T07:21:24.916Z,92.08
2017-03-05T07:22:05.450Z,92.08
2017-03-05T07:22:47.612Z,92.37
2017-03-05T07:23:31.043Z,92.37
2017-03-05T07:24:14.092Z,92.08
2017-03-05T07:24:56.099Z,92.37
2017-03-05T07:25:37.969Z,92.18
2017-03-05T07:26:20.869Z,92.37
2017-03-05T07:27:03.926Z,92.37
2017-03-05T07:27:45.691Z,92.46
2017-03-05T07:28:27.550Z,92.46
2017-03-05T07:29:09.707Z,92.46
2017-03-05T07:29:52.923Z,92.56
2017-03-05T07:30:35.945Z,92.56
2017-03-05T07:31:18.047Z,92.37
2017-03-05T07:32:00.043Z,92.37
2017-03-05T07:32:40.601Z,92.37
2017-03-05T07:33:21.126Z,92.27
2017-03-05T07:34:01.685Z,92.08
2017-03-05T07:34:42.197Z,92.46
2017-03-05T07:35:22.717Z,92.46
2017-03-05T07:36:03.272Z,92.56
2017-03-05T07:36:43.780Z,91.99
2017-03-05T07:37:24.305Z,92.46
2017-03-05T07:38:04.826Z,91.89
2017-03-05T07:38:45.363Z,92.08
2017-03-05T07:39:25.890Z,91.89
2017-03-05T07:40:06.430Z,91.8
2017-03-05T07:40:46.966Z,91.8
2017-03-05T07:41:27.499Z,91.89
2017-03-05T07:42:08.031Z,91.71
2017-03-05T07:42:48.567Z,91.99
2017-03-05T07:43:29.086Z,92.18
2017-03-05T07:44:09.621Z,91.99
2017-03-05T07:44:50.158Z,92.18
2017-03-05T07:45:30.697Z,92.18
2017-03-05T07:46:11.227Z,91.89
2017-03-05T07:46:51.768Z,91.71
2017-03-05T07:47:32.299Z,91.71
2017-03-05T07:48:12.836Z,91.56
2017-03-05T07:48:53.363Z,91.47
2017-03-05T07:49:33.893Z,91.47
2017-03-05T07:50:14.426Z,91.56
2017-03-05T07:50:54.967Z,91.75
2017-03-05T07:51:35.501Z,91.66
2017-03-05T07:52:16.032Z,91.47
2017-03-05T07:52:56.571Z,91.56
2017-03-05T07:53:37.103Z,91.61
2017-03-05T07:54:17.639Z,91.71
2017-03-05T07:54:58.172Z,91.75
2017-03-05T07:55:38.704Z,91.75
2017-03-05T07:56:19.233Z,91.66
2017-03-05T07:56:59.770Z,91.75
2017-03-05T07:57:40.302Z,91.75
2017-03-05T07:58:20.838Z,91.66
2017-03-05T07:59:01.373Z,91.94
2017-03-05T07:59:41.916Z,91.94
2017-03-05T08:00:23.215Z,91.94
2017-03-05T08:01:06.985Z,91.85
2017-03-05T08:01:50.317Z,91.75
2017-03-05T08:02:32.455Z,91.85
2017-03-05T08:03:14.518Z,91.75
2017-03-05T08:03:57.212Z,91.75
2017-03-05T08:04:40.038Z,91.75
2017-03-05T08:05:23.195Z,91.85
2017-03-05T08:06:03.757Z,91.85
2017-03-05T08:06:44.269Z,91.85
2017-03-05T08:07:25.115Z,92.03
2017-03-05T08:08:05.649Z,91.89
2017-03-05T08:08:46.242Z,91.75
2017-03-05T08:09:27.545Z,92.03
2017-03-05T08:10:08.078Z,91.75
2017-03-05T08:10:48.618Z,91.85
2017-03-05T08:11:29.142Z,92.03
2017-03-05T08:12:09.705Z,91.75
2017-03-05T08:12:50.256Z,91.8
2017-03-05T08:13:30.794Z,92.08
2017-03-05T08:14:11.343Z,91.89
2017-03-05T08:14:51.865Z,91.8
2017-03-05T08:15:32.481Z,91.89
2017-03-05T08:16:13.027Z,91.32
2017-03-05T08:16:54.741Z,91.32
2017-03-05T08:17:36.088Z,91.32
2017-03-05T08:18:17.465Z,91.42
2017-03-05T08:18:58.048Z,91.61
2017-03-05T08:19:38.576Z,91.61
2017-03-05T08:20:19.113Z,91.61
2017-03-05T08:20:59.682Z,91.42
2017-03-05T08:21:40.215Z,91.03
2017-03-05T08:22:20.743Z,91.61
2017-03-05T08:23:01.284Z,91.51
2017-03-05T08:23:41.814Z,91.61
2017-03-05T08:24:22.332Z,91.7
2017-03-05T08:25:02.884Z,91.61
2017-03-05T08:25:43.415Z,91.32
2017-03-05T08:26:23.952Z,91.42
2017-03-05T08:27:04.488Z,91.42
2017-03-05T08:27:45.015Z,91.22
2017-03-05T08:28:25.542Z,92.03
2017-03-05T08:29:06.116Z,91.32
2017-03-05T08:29:46.640Z,92.13
2017-03-05T08:30:27.183Z,92.08
2017-03-05T08:31:07.718Z,91.99
2017-03-05T08:31:48.264Z,92.08
2017-03-05T08:32:28.861Z,91.84
2017-03-05T08:33:09.392Z,91.89
2017-03-05T08:33:49.927Z,91.8
2017-03-05T08:34:30.467Z,91.8
2017-03-05T08:35:12.133Z,91.99
2017-03-05T08:37:34.718Z,92.08
2017-03-05T08:38:18.053Z,92.08
2017-03-05T08:39:01.995Z,91.99
2017-03-05T08:39:45.299Z,91.32
2017-03-05T08:40:28.447Z,91.13
2017-03-05T08:41:11.793Z,91.61
2017-03-05T08:41:55.100Z,91.22
2017-03-05T08:42:37.331Z,91.51
2017-03-05T08:43:18.001Z,91.42
2017-03-05T08:43:58.557Z,91.42
2017-03-05T08:44:39.069Z,91.22
2017-03-05T08:45:19.615Z,91.22
2017-03-05T08:46:00.140Z,91.03
2017-03-05T08:46:40.955Z,91.03
2017-03-05T08:47:21.487Z,90.94
2017-03-05T08:48:02.004Z,91.22
2017-03-05T08:48:42.543Z,91.17
2017-03-05T08:49:23.113Z,91.22
2017-03-05T08:50:03.644Z,91.32
2017-03-05T08:50:44.166Z,91.13
2017-03-05T08:51:24.696Z,91.17
2017-03-05T08:52:05.244Z,90.84
2017-03-05T08:52:45.777Z,90.84
2017-03-05T08:53:26.321Z,90.94
2017-03-05T08:54:06.853Z,90.94
2017-03-05T08:54:47.387Z,91.46
2017-03-05T08:55:27.930Z,91.17
2017-03-05T08:56:08.461Z,91.17
2017-03-05T08:56:48.992Z,91.37
2017-03-05T08:57:29.636Z,91.27
2017-03-05T08:58:10.318Z,91.17
2017-03-05T08:58:50.851Z,91.17
2017-03-05T08:59:31.393Z,91.27
2017-03-05T09:00:11.923Z,91.27
2017-03-05T09:00:52.468Z,91.17
2017-03-05T09:01:33.182Z,91.17
2017-03-05T09:02:13.702Z,90.99
2017-03-05T09:02:54.211Z,91.46
2017-03-05T09:03:34.747Z,90.8
2017-03-05T09:04:15.263Z,90.89
2017-03-05T09:04:55.775Z,90.42
2017-03-05T09:05:36.323Z,90.42
2017-03-05T09:06:16.862Z,90.61
2017-03-05T09:06:57.422Z,90.51
2017-03-05T09:07:37.924Z,90.42
2017-03-05T09:08:18.457Z,89.94
2017-03-05T09:08:58.984Z,90.42
2017-03-05T09:09:39.522Z,90.42
2017-03-05T09:10:20.120Z,90.13
2017-03-05T09:11:00.661Z,90.13
2017-03-05T09:11:41.199Z,90.42
2017-03-05T09:12:21.721Z,90.32
2017-03-05T09:13:02.281Z,90.32
2017-03-05T09:13:42.832Z,90.32
2017-03-05T09:14:23.373Z,90.32
2017-03-05T09:15:03.917Z,90.32
2017-03-05T09:15:44.989Z,90.42
2017-03-05T09:16:26.043Z,90.42
2017-03-05T09:17:07.512Z,90.32
2017-03-05T09:17:49.241Z,90.03
2017-03-05T09:18:31.524Z,89.84
2017-03-05T09:19:13.930Z,89.89
2017-03-05T09:19:56.192Z,89.7